sensor_id;sensor_type;location;lat;lon;timestamp;temperature;humidity
12335;DHT22;6233;51.560;9.986;2023-02-15T00:00:07;3.00;99.90
12335;DHT22;6233;51.560;9.986;2023-02-15T00:03:11;3.00;99.90
12335;DHT22;6233;51.560;9.986;2023-02-15T00:06:13;3.00;99.90
12335;DHT22;6233;51.560;9.986;2023-02-15T00:09:15;3.00;99.90
12335;DHT22;6233;51.560;9.986;2023-02-15T00:12:17;2.90;99.90
12335;DHT22;6233;51.560;9.986;2023-02-15T00:15:19;2.90;99.90
12335;DHT22;6233;51.560;9.986;2023-02-15T00:18:20;2.90;99.90
12335;DHT22;6233;51.560;9.986;2023-02-15T00:21:22;3.00;99.90
12335;DHT22;6233;51.560;9.986;2023-02-15T00:24:24;3.00;99.90
12335;DHT22;6233;51.560;9.986;2023-02-15T00:27:26;3.00;99.90
12335;DHT22;6233;51.560;9.986;2023-02-15T00:30:27;3.00;99.90
12335;DHT22;6233;51.560;9.986;2023-02-15T00:33:29;3.00;99.90
12335;DHT22;6233;51.560;9.986;2023-02-15T00:36:34;3.00;99.90
12335;DHT22;6233;51.560;9.986;2023-02-15T00:39:35;3.00;99.90
12335;DHT22;6233;51.560;9.986;2023-02-15T00:42:37;2.90;99.90
12335;DHT22;6233;51.560;9.986;2023-02-15T00:45:39;2.90;99.90
12335;DHT22;6233;51.560;9.986;2023-02-15T00:48:40;2.90;99.90
12335;DHT22;6233;51.560;9.986;2023-02-15T00:51:42;2.90;99.90
12335;DHT22;6233;51.560;9.986;2023-02-15T00:54:44;2.80;99.90
12335;DHT22;6233;51.560;9.986;2023-02-15T00:57:46;2.80;99.90
12335;DHT22;6233;51.560;9.986;2023-02-15T01:00:48;2.80;99.90
12335;DHT22;6233;51.560;9.986;2023-02-15T01:03:52;2.80;99.90
12335;DHT22;6233;51.560;9.986;2023-02-15T01:06:54;2.70;99.90
12335;DHT22;6233;51.560;9.986;2023-02-15T01:09:56;2.60;99.90
12335;DHT22;6233;51.560;9.986;2023-02-15T01:12:57;2.50;99.90
12335;DHT22;6233;51.560;9.986;2023-02-15T01:15:59;2.40;99.90
12335;DHT22;6233;51.560;9.986;2023-02-15T01:19:01;2.40;99.90
12335;DHT22;6233;51.560;9.986;2023-02-15T01:22:04;2.30;99.90
12335;DHT22;6233;51.560;9.986;2023-02-15T01:25:06;2.10;99.90
12335;DHT22;6233;51.560;9.986;2023-02-15T01:28:08;2.00;99.90
12335;DHT22;6233;51.560;9.986;2023-02-15T01:31:13;1.90;99.90
12335;DHT22;6233;51.560;9.986;2023-02-15T01:34:15;1.80;99.90
12335;DHT22;6233;51.560;9.986;2023-02-15T01:37:18;1.80;99.90
12335;DHT22;6233;51.560;9.986;2023-02-15T01:40:19;1.70;99.90
12335;DHT22;6233;51.560;9.986;2023-02-15T01:43:21;1.60;99.90
12335;DHT22;6233;51.560;9.986;2023-02-15T01:46:33;1.50;99.90
12335;DHT22;6233;51.560;9.986;2023-02-15T01:49:36;1.40;99.90
12335;DHT22;6233;51.560;9.986;2023-02-15T01:52:42;1.40;99.90
12335;DHT22;6233;51.560;9.986;2023-02-15T01:56:14;1.40;99.90
12335;DHT22;6233;51.560;9.986;2023-02-15T01:59:19;1.30;99.90
12335;DHT22;6233;51.560;9.986;2023-02-15T02:02:22;1.20;99.90
12335;DHT22;6233;51.560;9.986;2023-02-15T02:05:26;1.20;99.90
12335;DHT22;6233;51.560;9.986;2023-02-15T02:08:28;1.20;99.90
12335;DHT22;6233;51.560;9.986;2023-02-15T02:11:29;1.20;99.90
12335;DHT22;6233;51.560;9.986;2023-02-15T02:14:32;1.10;99.90
12335;DHT22;6233;51.560;9.986;2023-02-15T02:24:34;1.20;99.90
12335;DHT22;6233;51.560;9.986;2023-02-15T02:28:18;1.10;99.90
12335;DHT22;6233;51.560;9.986;2023-02-15T02:31:48;1.10;99.90
12335;DHT22;6233;51.560;9.986;2023-02-15T02:34:58;1.00;99.90
12335;DHT22;6233;51.560;9.986;2023-02-15T02:41:54;0.90;99.90
12335;DHT22;6233;51.560;9.986;2023-02-15T02:45:06;0.90;99.90
12335;DHT22;6233;51.560;9.986;2023-02-15T02:48:15;0.80;99.90
12335;DHT22;6233;51.560;9.986;2023-02-15T02:51:17;0.80;99.90
12335;DHT22;6233;51.560;9.986;2023-02-15T02:54:22;0.80;99.90
12335;DHT22;6233;51.560;9.986;2023-02-15T02:57:26;0.70;99.90
12335;DHT22;6233;51.560;9.986;2023-02-15T03:00:37;0.70;99.90
12335;DHT22;6233;51.560;9.986;2023-02-15T03:03:44;0.70;99.90
12335;DHT22;6233;51.560;9.986;2023-02-15T03:07:01;0.70;99.90
12335;DHT22;6233;51.560;9.986;2023-02-15T03:10:06;0.70;99.90
12335;DHT22;6233;51.560;9.986;2023-02-15T03:13:09;0.80;99.90
12335;DHT22;6233;51.560;9.986;2023-02-15T03:16:12;0.70;99.90
12335;DHT22;6233;51.560;9.986;2023-02-15T03:19:30;0.80;99.90
12335;DHT22;6233;51.560;9.986;2023-02-15T03:22:44;0.80;99.90
12335;DHT22;6233;51.560;9.986;2023-02-15T03:25:55;0.80;99.90
12335;DHT22;6233;51.560;9.986;2023-02-15T03:28:58;0.90;99.90
12335;DHT22;6233;51.560;9.986;2023-02-15T03:32:06;0.90;99.90
12335;DHT22;6233;51.560;9.986;2023-02-15T03:35:09;0.90;99.90
12335;DHT22;6233;51.560;9.986;2023-02-15T03:38:13;0.90;99.90
12335;DHT22;6233;51.560;9.986;2023-02-15T03:41:19;0.80;99.90
12335;DHT22;6233;51.560;9.986;2023-02-15T03:44:31;0.60;99.90
12335;DHT22;6233;51.560;9.986;2023-02-15T03:47:39;0.50;99.90
12335;DHT22;6233;51.560;9.986;2023-02-15T03:50:42;0.40;99.90
12335;DHT22;6233;51.560;9.986;2023-02-15T03:54:12;0.30;99.90
12335;DHT22;6233;51.560;9.986;2023-02-15T03:57:28;0.30;99.90
12335;DHT22;6233;51.560;9.986;2023-02-15T04:00:59;0.20;99.90
12335;DHT22;6233;51.560;9.986;2023-02-15T04:04:21;0.10;99.90
12335;DHT22;6233;51.560;9.986;2023-02-15T04:07:26;0.20;99.90
12335;DHT22;6233;51.560;9.986;2023-02-15T04:10:27;0.20;99.90
12335;DHT22;6233;51.560;9.986;2023-02-15T04:13:48;0.20;99.90
12335;DHT22;6233;51.560;9.986;2023-02-15T04:16:58;0.20;99.90
12335;DHT22;6233;51.560;9.986;2023-02-15T04:19:59;0.10;99.90
12335;DHT22;6233;51.560;9.986;2023-02-15T04:23:19;0.10;99.90
12335;DHT22;6233;51.560;9.986;2023-02-15T04:26:40;0.10;99.90
12335;DHT22;6233;51.560;9.986;2023-02-15T04:29:44;0.10;99.90
12335;DHT22;6233;51.560;9.986;2023-02-15T04:32:45;0.10;99.90
12335;DHT22;6233;51.560;9.986;2023-02-15T04:35:47;0.10;99.90
12335;DHT22;6233;51.560;9.986;2023-02-15T04:38:49;0.10;99.90
12335;DHT22;6233;51.560;9.986;2023-02-15T04:41:51;0.10;99.90
12335;DHT22;6233;51.560;9.986;2023-02-15T04:44:53;0.10;99.90
12335;DHT22;6233;51.560;9.986;2023-02-15T04:47:54;0.10;99.90
12335;DHT22;6233;51.560;9.986;2023-02-15T04:50:56;0.10;99.90
12335;DHT22;6233;51.560;9.986;2023-02-15T04:53:58;0.10;99.90
12335;DHT22;6233;51.560;9.986;2023-02-15T04:57:00;0.10;99.90
12335;DHT22;6233;51.560;9.986;2023-02-15T05:00:02;0.10;99.90
12335;DHT22;6233;51.560;9.986;2023-02-15T05:03:04;0.10;99.90
12335;DHT22;6233;51.560;9.986;2023-02-15T05:06:06;0.10;99.90
12335;DHT22;6233;51.560;9.986;2023-02-15T05:09:07;0.00;99.90
12335;DHT22;6233;51.560;9.986;2023-02-15T05:12:09;0.00;99.90
12335;DHT22;6233;51.560;9.986;2023-02-15T05:15:11;-0.10;99.90
12335;DHT22;6233;51.560;9.986;2023-02-15T05:18:13;-0.10;99.90
12335;DHT22;6233;51.560;9.986;2023-02-15T05:21:14;-0.10;99.90
12335;DHT22;6233;51.560;9.986;2023-02-15T05:24:17;-0.10;99.90
12335;DHT22;6233;51.560;9.986;2023-02-15T05:27:38;-0.10;99.90
12335;DHT22;6233;51.560;9.986;2023-02-15T05:31:11;-0.10;99.90
12335;DHT22;6233;51.560;9.986;2023-02-15T05:34:13;-0.10;99.90
12335;DHT22;6233;51.560;9.986;2023-02-15T05:37:15;-0.20;99.90
12335;DHT22;6233;51.560;9.986;2023-02-15T05:40:17;-0.20;99.90
12335;DHT22;6233;51.560;9.986;2023-02-15T05:43:19;-0.30;99.90
12335;DHT22;6233;51.560;9.986;2023-02-15T05:46:20;-0.30;99.90
12335;DHT22;6233;51.560;9.986;2023-02-15T05:49:22;-0.40;99.90
12335;DHT22;6233;51.560;9.986;2023-02-15T05:52:24;-0.30;99.90
12335;DHT22;6233;51.560;9.986;2023-02-15T05:55:26;-0.30;99.90
12335;DHT22;6233;51.560;9.986;2023-02-15T05:58:30;-0.30;99.90
12335;DHT22;6233;51.560;9.986;2023-02-15T06:01:32;-0.30;99.90
12335;DHT22;6233;51.560;9.986;2023-02-15T06:04:33;-0.30;99.90
12335;DHT22;6233;51.560;9.986;2023-02-15T06:07:35;-0.20;99.90
12335;DHT22;6233;51.560;9.986;2023-02-15T06:11:08;-0.30;99.90
12335;DHT22;6233;51.560;9.986;2023-02-15T06:14:16;-0.30;99.90
12335;DHT22;6233;51.560;9.986;2023-02-15T06:17:20;-0.30;99.90
12335;DHT22;6233;51.560;9.986;2023-02-15T06:20:23;-0.20;99.90
12335;DHT22;6233;51.560;9.986;2023-02-15T06:23:25;-0.20;99.90
12335;DHT22;6233;51.560;9.986;2023-02-15T06:26:26;-0.20;99.90
12335;DHT22;6233;51.560;9.986;2023-02-15T06:29:28;-0.20;99.90
12335;DHT22;6233;51.560;9.986;2023-02-15T06:32:30;-0.10;99.90
12335;DHT22;6233;51.560;9.986;2023-02-15T06:35:31;-0.20;99.90
12335;DHT22;6233;51.560;9.986;2023-02-15T06:38:33;-0.30;99.90
12335;DHT22;6233;51.560;9.986;2023-02-15T06:41:38;-0.30;99.90
12335;DHT22;6233;51.560;9.986;2023-02-15T06:44:40;-0.30;99.90
12335;DHT22;6233;51.560;9.986;2023-02-15T06:47:42;-0.30;99.90
12335;DHT22;6233;51.560;9.986;2023-02-15T06:50:43;-0.20;99.90
12335;DHT22;6233;51.560;9.986;2023-02-15T06:53:45;-0.20;99.90
12335;DHT22;6233;51.560;9.986;2023-02-15T06:56:47;-0.20;99.90
12335;DHT22;6233;51.560;9.986;2023-02-15T06:59:49;-0.20;99.90
12335;DHT22;6233;51.560;9.986;2023-02-15T07:02:54;-0.30;99.90
12335;DHT22;6233;51.560;9.986;2023-02-15T07:06:01;-0.30;99.90
12335;DHT22;6233;51.560;9.986;2023-02-15T07:09:04;-0.20;99.90
12335;DHT22;6233;51.560;9.986;2023-02-15T07:12:06;-0.20;99.90
12335;DHT22;6233;51.560;9.986;2023-02-15T07:15:27;-0.20;99.90
12335;DHT22;6233;51.560;9.986;2023-02-15T07:18:29;-0.20;99.90
12335;DHT22;6233;51.560;9.986;2023-02-15T07:21:38;-0.30;99.90
12335;DHT22;6233;51.560;9.986;2023-02-15T07:24:40;-0.30;99.90
12335;DHT22;6233;51.560;9.986;2023-02-15T07:27:42;-0.30;99.90
12335;DHT22;6233;51.560;9.986;2023-02-15T07:30:44;-0.30;99.90
12335;DHT22;6233;51.560;9.986;2023-02-15T07:33:57;-0.40;99.90
12335;DHT22;6233;51.560;9.986;2023-02-15T07:36:59;-0.40;99.90
12335;DHT22;6233;51.560;9.986;2023-02-15T07:40:00;-0.30;99.90
12335;DHT22;6233;51.560;9.986;2023-02-15T07:43:02;-0.30;99.90
12335;DHT22;6233;51.560;9.986;2023-02-15T07:46:07;-0.20;99.90
12335;DHT22;6233;51.560;9.986;2023-02-15T07:49:09;-0.20;99.90
12335;DHT22;6233;51.560;9.986;2023-02-15T07:52:10;-0.10;99.90
12335;DHT22;6233;51.560;9.986;2023-02-15T07:55:12;0.10;99.90
12335;DHT22;6233;51.560;9.986;2023-02-15T07:58:14;0.30;99.90
12335;DHT22;6233;51.560;9.986;2023-02-15T08:01:30;0.50;99.90
12335;DHT22;6233;51.560;9.986;2023-02-15T08:04:33;0.70;99.90
12335;DHT22;6233;51.560;9.986;2023-02-15T08:07:34;1.00;99.90
12335;DHT22;6233;51.560;9.986;2023-02-15T08:10:36;1.10;99.90
12335;DHT22;6233;51.560;9.986;2023-02-15T08:14:18;1.30;99.90
12335;DHT22;6233;51.560;9.986;2023-02-15T08:17:20;1.50;99.90
12335;DHT22;6233;51.560;9.986;2023-02-15T08:20:22;1.70;99.90
12335;DHT22;6233;51.560;9.986;2023-02-15T08:23:24;1.70;99.90
12335;DHT22;6233;51.560;9.986;2023-02-15T08:26:26;1.80;99.90
12335;DHT22;6233;51.560;9.986;2023-02-15T08:29:30;1.90;99.90
12335;DHT22;6233;51.560;9.986;2023-02-15T08:32:32;2.00;99.90
12335;DHT22;6233;51.560;9.986;2023-02-15T08:35:35;2.10;99.90
12335;DHT22;6233;51.560;9.986;2023-02-15T08:38:38;2.10;99.90
12335;DHT22;6233;51.560;9.986;2023-02-15T08:41:43;2.20;99.90
12335;DHT22;6233;51.560;9.986;2023-02-15T08:44:44;2.20;99.90
12335;DHT22;6233;51.560;9.986;2023-02-15T08:47:46;2.40;99.90
12335;DHT22;6233;51.560;9.986;2023-02-15T08:50:48;2.60;99.90
12335;DHT22;6233;51.560;9.986;2023-02-15T08:53:58;2.80;99.90
12335;DHT22;6233;51.560;9.986;2023-02-15T08:57:00;2.90;99.90
12335;DHT22;6233;51.560;9.986;2023-02-15T09:00:02;3.10;99.90
12335;DHT22;6233;51.560;9.986;2023-02-15T09:03:06;3.20;99.90
12335;DHT22;6233;51.560;9.986;2023-02-15T09:06:07;3.60;99.90
12335;DHT22;6233;51.560;9.986;2023-02-15T09:09:11;3.80;99.90
12335;DHT22;6233;51.560;9.986;2023-02-15T09:12:13;4.00;99.90
12335;DHT22;6233;51.560;9.986;2023-02-15T09:15:14;4.10;99.90
12335;DHT22;6233;51.560;9.986;2023-02-15T09:18:16;4.00;99.90
12335;DHT22;6233;51.560;9.986;2023-02-15T09:21:20;4.10;99.90
12335;DHT22;6233;51.560;9.986;2023-02-15T09:24:23;4.20;99.90
12335;DHT22;6233;51.560;9.986;2023-02-15T09:27:24;4.20;99.90
12335;DHT22;6233;51.560;9.986;2023-02-15T09:30:26;4.20;99.90
12335;DHT22;6233;51.560;9.986;2023-02-15T09:33:28;4.60;99.90
12335;DHT22;6233;51.560;9.986;2023-02-15T09:36:38;4.90;99.90
12335;DHT22;6233;51.560;9.986;2023-02-15T09:39:42;5.20;99.90
12335;DHT22;6233;51.560;9.986;2023-02-15T09:42:55;5.50;99.90
12335;DHT22;6233;51.560;9.986;2023-02-15T09:46:21;5.80;99.90
12335;DHT22;6233;51.560;9.986;2023-02-15T09:52:55;6.30;99.90
12335;DHT22;6233;51.560;9.986;2023-02-15T09:59:25;6.30;99.90
12335;DHT22;6233;51.560;9.986;2023-02-15T10:12:36;6.80;99.90
12335;DHT22;6233;51.560;9.986;2023-02-15T10:15:53;6.90;99.90
12335;DHT22;6233;51.560;9.986;2023-02-15T10:19:23;6.80;99.90
12335;DHT22;6233;51.560;9.986;2023-02-15T10:26:48;7.10;99.90
12335;DHT22;6233;51.560;9.986;2023-02-15T10:33:40;7.60;99.90
12335;DHT22;6233;51.560;9.986;2023-02-15T10:43:38;7.50;99.90
12335;DHT22;6233;51.560;9.986;2023-02-15T11:06:48;7.70;99.90
12335;DHT22;6233;51.560;9.986;2023-02-15T11:09:59;7.60;99.90
12335;DHT22;6233;51.560;9.986;2023-02-15T11:13:13;7.40;99.90
12335;DHT22;6233;51.560;9.986;2023-02-15T11:16:19;7.40;99.90
12335;DHT22;6233;51.560;9.986;2023-02-15T11:19:34;7.40;99.90
12335;DHT22;6233;51.560;9.986;2023-02-15T11:22:38;7.50;99.90
12335;DHT22;6233;51.560;9.986;2023-02-15T11:25:39;7.50;99.90
12335;DHT22;6233;51.560;9.986;2023-02-15T11:28:55;7.50;99.90
12335;DHT22;6233;51.560;9.986;2023-02-15T11:32:02;7.60;99.90
12335;DHT22;6233;51.560;9.986;2023-02-15T11:38:28;7.60;99.90
12335;DHT22;6233;51.560;9.986;2023-02-15T11:41:37;7.60;99.90
12335;DHT22;6233;51.560;9.986;2023-02-15T11:44:58;7.60;99.90
12335;DHT22;6233;51.560;9.986;2023-02-15T11:48:01;7.50;99.90
12335;DHT22;6233;51.560;9.986;2023-02-15T11:51:13;7.40;99.90
12335;DHT22;6233;51.560;9.986;2023-02-15T11:54:21;7.40;99.90
12335;DHT22;6233;51.560;9.986;2023-02-15T11:57:31;7.20;99.90
12335;DHT22;6233;51.560;9.986;2023-02-15T12:00:44;7.00;99.90
12335;DHT22;6233;51.560;9.986;2023-02-15T12:03:49;7.00;99.90
12335;DHT22;6233;51.560;9.986;2023-02-15T12:07:09;6.90;99.90
12335;DHT22;6233;51.560;9.986;2023-02-15T12:10:23;6.90;99.90
12335;DHT22;6233;51.560;9.986;2023-02-15T12:13:26;7.00;99.90
12335;DHT22;6233;51.560;9.986;2023-02-15T12:16:29;6.90;99.90
12335;DHT22;6233;51.560;9.986;2023-02-15T12:19:38;6.80;99.90
12335;DHT22;6233;51.560;9.986;2023-02-15T12:22:49;6.80;99.90
12335;DHT22;6233;51.560;9.986;2023-02-15T12:25:53;6.70;99.90
12335;DHT22;6233;51.560;9.986;2023-02-15T12:28:59;6.70;99.90
12335;DHT22;6233;51.560;9.986;2023-02-15T12:32:03;6.70;99.90
12335;DHT22;6233;51.560;9.986;2023-02-15T12:35:15;6.70;99.90
12335;DHT22;6233;51.560;9.986;2023-02-15T12:38:23;6.70;99.90
12335;DHT22;6233;51.560;9.986;2023-02-15T12:41:26;6.70;99.90
12335;DHT22;6233;51.560;9.986;2023-02-15T12:44:33;6.60;99.90
12335;DHT22;6233;51.560;9.986;2023-02-15T12:47:35;6.60;99.90
12335;DHT22;6233;51.560;9.986;2023-02-15T12:50:38;6.70;99.90
12335;DHT22;6233;51.560;9.986;2023-02-15T12:53:48;6.70;99.90
12335;DHT22;6233;51.560;9.986;2023-02-15T12:56:50;6.70;99.90
12335;DHT22;6233;51.560;9.986;2023-02-15T13:00:04;6.70;99.90
12335;DHT22;6233;51.560;9.986;2023-02-15T13:03:19;6.70;99.90
12335;DHT22;6233;51.560;9.986;2023-02-15T13:06:46;6.70;99.90
12335;DHT22;6233;51.560;9.986;2023-02-15T13:09:50;6.70;99.90
12335;DHT22;6233;51.560;9.986;2023-02-15T13:12:52;6.70;99.90
12335;DHT22;6233;51.560;9.986;2023-02-15T13:15:59;6.70;99.90
12335;DHT22;6233;51.560;9.986;2023-02-15T13:19:11;6.70;99.90
12335;DHT22;6233;51.560;9.986;2023-02-15T13:22:38;6.70;99.90
12335;DHT22;6233;51.560;9.986;2023-02-15T13:25:59;6.80;99.90
12335;DHT22;6233;51.560;9.986;2023-02-15T13:29:28;6.80;99.90
12335;DHT22;6233;51.560;9.986;2023-02-15T13:32:33;6.80;99.90
12335;DHT22;6233;51.560;9.986;2023-02-15T13:39:24;6.90;99.90
12335;DHT22;6233;51.560;9.986;2023-02-15T13:52:27;6.90;99.90
12335;DHT22;6233;51.560;9.986;2023-02-15T13:55:31;6.90;99.90
12335;DHT22;6233;51.560;9.986;2023-02-15T14:01:55;6.90;99.90
12335;DHT22;6233;51.560;9.986;2023-02-15T14:15:26;7.00;99.90
12335;DHT22;6233;51.560;9.986;2023-02-15T14:21:34;7.00;99.90
12335;DHT22;6233;51.560;9.986;2023-02-15T14:28:33;7.00;99.90
12335;DHT22;6233;51.560;9.986;2023-02-15T14:31:43;7.10;99.90
12335;DHT22;6233;51.560;9.986;2023-02-15T14:34:52;7.10;99.90
12335;DHT22;6233;51.560;9.986;2023-02-15T14:41:44;7.10;99.90
12335;DHT22;6233;51.560;9.986;2023-02-15T14:49:26;7.10;99.90
12335;DHT22;6233;51.560;9.986;2023-02-15T14:52:28;7.00;99.90
12335;DHT22;6233;51.560;9.986;2023-02-15T14:55:36;7.00;99.90
12335;DHT22;6233;51.560;9.986;2023-02-15T15:05:47;7.00;99.90
12335;DHT22;6233;51.560;9.986;2023-02-15T15:08:58;7.00;99.90
12335;DHT22;6233;51.560;9.986;2023-02-15T15:18:48;7.00;99.90
12335;DHT22;6233;51.560;9.986;2023-02-15T15:25:03;7.00;99.90
12335;DHT22;6233;51.560;9.986;2023-02-15T15:31:47;7.00;99.90
12335;DHT22;6233;51.560;9.986;2023-02-15T15:34:57;7.00;99.90
12335;DHT22;6233;51.560;9.986;2023-02-15T15:41:40;6.90;99.90
12335;DHT22;6233;51.560;9.986;2023-02-15T15:45:25;7.00;99.90
12335;DHT22;6233;51.560;9.986;2023-02-15T15:48:38;6.90;99.90
12335;DHT22;6233;51.560;9.986;2023-02-15T15:51:42;6.90;99.90
12335;DHT22;6233;51.560;9.986;2023-02-15T15:54:46;6.90;99.90
12335;DHT22;6233;51.560;9.986;2023-02-15T15:57:55;6.80;99.90
12335;DHT22;6233;51.560;9.986;2023-02-15T16:01:06;6.80;99.90
12335;DHT22;6233;51.560;9.986;2023-02-15T16:04:22;6.80;99.90
12335;DHT22;6233;51.560;9.986;2023-02-15T16:07:26;6.70;99.90
12335;DHT22;6233;51.560;9.986;2023-02-15T16:10:30;6.70;99.90
12335;DHT22;6233;51.560;9.986;2023-02-15T16:13:35;6.60;99.90
12335;DHT22;6233;51.560;9.986;2023-02-15T16:16:37;6.50;99.90
12335;DHT22;6233;51.560;9.986;2023-02-15T16:19:43;6.50;99.90
12335;DHT22;6233;51.560;9.986;2023-02-15T16:22:49;6.40;99.90
12335;DHT22;6233;51.560;9.986;2023-02-15T16:29:18;6.30;99.90
12335;DHT22;6233;51.560;9.986;2023-02-15T16:32:27;6.20;99.90
12335;DHT22;6233;51.560;9.986;2023-02-15T16:35:29;6.20;99.90
12335;DHT22;6233;51.560;9.986;2023-02-15T16:41:47;6.00;99.90
12335;DHT22;6233;51.560;9.986;2023-02-15T16:45:05;5.90;99.90
12335;DHT22;6233;51.560;9.986;2023-02-15T16:48:17;5.80;99.90
12335;DHT22;6233;51.560;9.986;2023-02-15T16:51:23;5.90;99.90
12335;DHT22;6233;51.560;9.986;2023-02-15T16:54:30;5.70;99.90
12335;DHT22;6233;51.560;9.986;2023-02-15T16:57:35;5.70;99.90
12335;DHT22;6233;51.560;9.986;2023-02-15T17:00:38;5.60;99.90
12335;DHT22;6233;51.560;9.986;2023-02-15T17:03:50;5.50;99.90
12335;DHT22;6233;51.560;9.986;2023-02-15T17:07:18;5.50;99.90
12335;DHT22;6233;51.560;9.986;2023-02-15T17:10:30;5.50;99.90
12335;DHT22;6233;51.560;9.986;2023-02-15T17:13:32;5.50;99.90
12335;DHT22;6233;51.560;9.986;2023-02-15T17:19:49;5.50;99.90
12335;DHT22;6233;51.560;9.986;2023-02-15T17:22:56;5.40;99.90
12335;DHT22;6233;51.560;9.986;2023-02-15T17:26:01;5.30;99.90
12335;DHT22;6233;51.560;9.986;2023-02-15T17:32:20;5.20;99.90
12335;DHT22;6233;51.560;9.986;2023-02-15T17:35:25;5.10;99.90
12335;DHT22;6233;51.560;9.986;2023-02-15T17:38:27;5.00;99.90
12335;DHT22;6233;51.560;9.986;2023-02-15T17:41:31;5.00;99.90
12335;DHT22;6233;51.560;9.986;2023-02-15T17:44:37;4.90;99.90
12335;DHT22;6233;51.560;9.986;2023-02-15T17:47:38;4.90;99.90
12335;DHT22;6233;51.560;9.986;2023-02-15T17:50:42;4.90;99.90
12335;DHT22;6233;51.560;9.986;2023-02-15T17:53:44;4.90;99.90
12335;DHT22;6233;51.560;9.986;2023-02-15T17:57:13;4.80;99.90
12335;DHT22;6233;51.560;9.986;2023-02-15T18:00:16;4.80;99.90
12335;DHT22;6233;51.560;9.986;2023-02-15T18:03:48;4.80;99.90
12335;DHT22;6233;51.560;9.986;2023-02-15T18:07:10;4.80;99.90
12335;DHT22;6233;51.560;9.986;2023-02-15T18:10:32;4.70;99.90
12335;DHT22;6233;51.560;9.986;2023-02-15T18:13:52;4.70;99.90
12335;DHT22;6233;51.560;9.986;2023-02-15T18:16:55;4.70;99.90
12335;DHT22;6233;51.560;9.986;2023-02-15T18:19:57;4.60;99.90
12335;DHT22;6233;51.560;9.986;2023-02-15T18:22:59;4.60;99.90
12335;DHT22;6233;51.560;9.986;2023-02-15T18:26:02;4.60;99.90
12335;DHT22;6233;51.560;9.986;2023-02-15T18:29:04;4.50;99.90
12335;DHT22;6233;51.560;9.986;2023-02-15T18:32:21;4.50;99.90
12335;DHT22;6233;51.560;9.986;2023-02-15T18:35:30;4.50;99.90
12335;DHT22;6233;51.560;9.986;2023-02-15T18:38:33;4.40;99.90
12335;DHT22;6233;51.560;9.986;2023-02-15T18:41:37;4.40;99.90
12335;DHT22;6233;51.560;9.986;2023-02-15T18:44:39;4.40;99.90
12335;DHT22;6233;51.560;9.986;2023-02-15T18:47:44;4.40;99.90
12335;DHT22;6233;51.560;9.986;2023-02-15T18:50:47;4.40;99.90
12335;DHT22;6233;51.560;9.986;2023-02-15T18:53:52;4.30;99.90
12335;DHT22;6233;51.560;9.986;2023-02-15T18:57:03;4.30;99.90
12335;DHT22;6233;51.560;9.986;2023-02-15T19:00:23;4.30;99.90
12335;DHT22;6233;51.560;9.986;2023-02-15T19:03:31;4.30;99.90
12335;DHT22;6233;51.560;9.986;2023-02-15T19:06:33;4.20;99.90
12335;DHT22;6233;51.560;9.986;2023-02-15T19:09:43;4.20;99.90
12335;DHT22;6233;51.560;9.986;2023-02-15T19:12:50;4.20;99.90
12335;DHT22;6233;51.560;9.986;2023-02-15T19:15:53;4.20;99.90
12335;DHT22;6233;51.560;9.986;2023-02-15T19:18:56;4.20;99.90
12335;DHT22;6233;51.560;9.986;2023-02-15T19:22:00;4.20;99.90
12335;DHT22;6233;51.560;9.986;2023-02-15T19:25:04;4.20;99.90
12335;DHT22;6233;51.560;9.986;2023-02-15T19:28:28;4.10;99.90
12335;DHT22;6233;51.560;9.986;2023-02-15T19:31:30;4.10;99.90
12335;DHT22;6233;51.560;9.986;2023-02-15T19:34:35;4.00;99.90
12335;DHT22;6233;51.560;9.986;2023-02-15T19:37:38;4.00;99.90
12335;DHT22;6233;51.560;9.986;2023-02-15T19:40:43;4.00;99.90
12335;DHT22;6233;51.560;9.986;2023-02-15T19:43:52;4.00;99.90
12335;DHT22;6233;51.560;9.986;2023-02-15T19:46:56;4.00;99.90
12335;DHT22;6233;51.560;9.986;2023-02-15T19:49:58;3.90;99.90
12335;DHT22;6233;51.560;9.986;2023-02-15T19:53:04;3.90;99.90
12335;DHT22;6233;51.560;9.986;2023-02-15T19:56:16;3.90;99.90
12335;DHT22;6233;51.560;9.986;2023-02-15T19:59:23;3.80;99.90
12335;DHT22;6233;51.560;9.986;2023-02-15T20:02:26;3.70;99.90
12335;DHT22;6233;51.560;9.986;2023-02-15T20:05:29;3.80;99.90
12335;DHT22;6233;51.560;9.986;2023-02-15T20:08:31;3.80;99.90
12335;DHT22;6233;51.560;9.986;2023-02-15T20:11:33;3.80;99.90
12335;DHT22;6233;51.560;9.986;2023-02-15T20:14:34;3.80;99.90
12335;DHT22;6233;51.560;9.986;2023-02-15T20:17:36;3.70;99.90
12335;DHT22;6233;51.560;9.986;2023-02-15T20:20:56;3.70;99.90
12335;DHT22;6233;51.560;9.986;2023-02-15T20:23:59;3.60;99.90
12335;DHT22;6233;51.560;9.986;2023-02-15T20:27:01;3.60;99.90
12335;DHT22;6233;51.560;9.986;2023-02-15T20:30:05;3.60;99.90
12335;DHT22;6233;51.560;9.986;2023-02-15T20:33:07;3.60;99.90
12335;DHT22;6233;51.560;9.986;2023-02-15T20:36:13;3.60;99.90
12335;DHT22;6233;51.560;9.986;2023-02-15T20:39:18;3.50;99.90
12335;DHT22;6233;51.560;9.986;2023-02-15T20:42:21;3.40;99.90
12335;DHT22;6233;51.560;9.986;2023-02-15T20:45:32;3.50;99.90
12335;DHT22;6233;51.560;9.986;2023-02-15T20:48:34;3.40;99.90
12335;DHT22;6233;51.560;9.986;2023-02-15T20:51:36;3.40;99.90
12335;DHT22;6233;51.560;9.986;2023-02-15T20:54:38;3.40;99.90
12335;DHT22;6233;51.560;9.986;2023-02-15T20:57:40;3.30;99.90
12335;DHT22;6233;51.560;9.986;2023-02-15T21:00:41;3.30;99.90
12335;DHT22;6233;51.560;9.986;2023-02-15T21:03:43;3.20;99.90
12335;DHT22;6233;51.560;9.986;2023-02-15T21:06:48;3.10;99.90
12335;DHT22;6233;51.560;9.986;2023-02-15T21:09:50;3.10;99.90
12335;DHT22;6233;51.560;9.986;2023-02-15T21:12:53;3.00;99.90
12335;DHT22;6233;51.560;9.986;2023-02-15T21:15:58;2.90;99.90
12335;DHT22;6233;51.560;9.986;2023-02-15T21:19:00;2.90;99.90
12335;DHT22;6233;51.560;9.986;2023-02-15T21:22:02;2.80;99.90
12335;DHT22;6233;51.560;9.986;2023-02-15T21:25:04;2.70;99.90
12335;DHT22;6233;51.560;9.986;2023-02-15T21:28:15;2.70;99.90
12335;DHT22;6233;51.560;9.986;2023-02-15T21:31:19;2.70;99.90
12335;DHT22;6233;51.560;9.986;2023-02-15T21:34:23;2.60;99.90
12335;DHT22;6233;51.560;9.986;2023-02-15T21:37:31;2.60;99.90
12335;DHT22;6233;51.560;9.986;2023-02-15T21:40:33;2.50;99.90
12335;DHT22;6233;51.560;9.986;2023-02-15T21:43:38;2.50;99.90
12335;DHT22;6233;51.560;9.986;2023-02-15T21:46:58;2.50;99.90
12335;DHT22;6233;51.560;9.986;2023-02-15T21:50:23;2.50;99.90
12335;DHT22;6233;51.560;9.986;2023-02-15T21:53:45;2.40;99.90
12335;DHT22;6233;51.560;9.986;2023-02-15T21:56:47;2.40;99.90
12335;DHT22;6233;51.560;9.986;2023-02-15T21:59:51;2.40;99.90
12335;DHT22;6233;51.560;9.986;2023-02-15T22:02:55;2.30;99.90
12335;DHT22;6233;51.560;9.986;2023-02-15T22:05:58;2.30;99.90
12335;DHT22;6233;51.560;9.986;2023-02-15T22:09:00;2.30;99.90
12335;DHT22;6233;51.560;9.986;2023-02-15T22:12:16;2.30;99.90
12335;DHT22;6233;51.560;9.986;2023-02-15T22:15:20;2.20;99.90
12335;DHT22;6233;51.560;9.986;2023-02-15T22:18:28;2.20;99.90
12335;DHT22;6233;51.560;9.986;2023-02-15T22:21:34;2.20;99.90
12335;DHT22;6233;51.560;9.986;2023-02-15T22:24:35;2.20;99.90
12335;DHT22;6233;51.560;9.986;2023-02-15T22:27:38;2.20;99.90
12335;DHT22;6233;51.560;9.986;2023-02-15T22:30:43;2.20;99.90
12335;DHT22;6233;51.560;9.986;2023-02-15T22:33:45;2.20;99.90
12335;DHT22;6233;51.560;9.986;2023-02-15T22:36:53;2.20;99.90
12335;DHT22;6233;51.560;9.986;2023-02-15T22:39:55;2.10;99.90